Time;durP1;ratioP1;P1;durP2;ratioP2;P2;SDS_P1;SDS_P2;PMS_P1;PMS_P2;Temp;Humidity;BMP_temperature;BMP_pressure;BME280_temperature;BME280_humidity;BME280_pressure;Samples;Min_cycle;Max_cycle;Signal;HPM_P1;HPM_P2
2021/04/22 00:02:15;;;;;;;13.13;11.63;;;;;;;;;;5000966;28;20185;-62
2021/04/22 00:04:41;;;;;;;13.07;11.67;;;;;;;;;;5010647;28;20200;-63
2021/04/22 00:07:08;;;;;;;13.10;11.80;;;;;;;;;;5000398;28;20244;-62
2021/04/22 00:09:34;;;;;;;12.37;11.27;;;;;;;;;;5000821;28;20215;-62
2021/04/22 00:12:00;;;;;;;12.53;11.23;;;;;;;;;;5003971;28;20189;-64
2021/04/22 00:14:26;;;;;;;16.23;12.87;;;;;;;;;;5001351;28;20185;-63
2021/04/22 00:16:52;;;;;;;13.27;11.90;;;;;;;;;;4999990;28;20236;-62
2021/04/22 00:19:18;;;;;;;13.23;11.83;;;;;;;;;;5010792;28;20250;-65
2021/04/22 00:21:44;;;;;;;13.70;11.43;;;;;;;;;;5004329;28;20602;-63
2021/04/22 00:24:11;;;;;;;12.73;11.43;;;;;;;;;;5020804;28;20571;-65
2021/04/22 00:26:37;;;;;;;14.03;11.70;;;;;;;;;;5006969;28;20206;-63
2021/04/22 00:29:03;;;;;;;12.47;11.30;;;;;;;;;;5015817;28;20240;-63
2021/04/22 00:31:29;;;;;;;13.57;11.67;;;;;;;;;;5007439;28;21017;-64
2021/04/22 00:33:55;;;;;;;12.80;11.50;;;;;;;;;;4999076;28;20184;-62
2021/04/22 00:36:21;;;;;;;13.00;11.17;;;;;;;;;;5006454;28;20220;-64
2021/04/22 00:38:47;;;;;;;13.57;11.50;;;;;;;;;;5006590;28;20217;-63
2021/04/22 00:41:14;;;;;;;13.37;11.97;;;;;;;;;;5008848;28;20279;-62
2021/04/22 00:43:40;;;;;;;13.67;11.60;;;;;;;;;;5002373;28;20200;-61
2021/04/22 00:46:06;;;;;;;15.27;12.40;;;;;;;;;;5003087;28;20196;-64
2021/04/22 00:48:32;;;;;;;13.57;11.60;;;;;;;;;;5004754;28;20210;-63
2021/04/22 00:50:58;;;;;;;13.70;12.40;;;;;;;;;;5009341;28;20267;-64
2021/04/22 00:53:25;;;;;;;13.53;11.63;;;;;;;;;;5004416;28;20185;-63
2021/04/22 00:55:52;;;;;;;14.63;11.73;;;;;;;;;;5004875;28;20197;-62
2021/04/22 00:58:18;;;;;;;13.20;11.90;;;;;;;;;;5004441;28;20212;-63
2021/04/22 01:00:46;;;;;;;12.70;11.10;;;;;;;;;;5002868;28;20203;-63
2021/04/22 01:03:13;;;;;;;15.30;12.37;;;;;;;;;;4999949;28;20584;-63
2021/04/22 01:05:39;;;;;;;13.07;11.87;;;;;;;;;;5010629;28;20187;-64
2021/04/22 01:08:05;;;;;;;13.10;11.50;;;;;;;;;;5006368;28;20209;-65
2021/04/22 01:10:31;;;;;;;15.00;13.40;;;;;;;;;;5003261;28;20877;-62
2021/04/22 01:12:57;;;;;;;14.97;13.43;;;;;;;;;;5009827;28;20189;-62
2021/04/22 01:15:25;;;;;;;14.53;13.07;;;;;;;;;;5004554;28;20189;-64
2021/04/22 01:17:51;;;;;;;13.83;12.43;;;;;;;;;;5006681;28;20247;-63
2021/04/22 01:20:17;;;;;;;15.30;11.70;;;;;;;;;;5004300;28;20260;-62
2021/04/22 01:22:44;;;;;;;13.33;12.03;;;;;;;;;;5007415;28;20766;-62
2021/04/22 01:25:12;;;;;;;14.40;13.03;;;;;;;;;;5007867;28;20240;-63
2021/04/22 01:27:39;;;;;;;13.10;11.80;;;;;;;;;;5006921;28;20298;-62
2021/04/22 01:30:08;;;;;;;13.73;12.27;;;;;;;;;;5008984;28;20212;-64
2021/04/22 01:32:34;;;;;;;13.83;12.40;;;;;;;;;;5010916;28;20235;-63
2021/04/22 01:35:00;;;;;;;13.87;11.47;;;;;;;;;;5011133;28;20201;-64
2021/04/22 01:40:30;;;;;;;15.60;12.70;;;;;;;;;;5001579;28;20219;-62
2021/04/22 01:42:56;;;;;;;14.47;12.30;;;;;;;;;;5010287;28;20224;-62
2021/04/22 01:45:22;;;;;;;13.73;12.33;;;;;;;;;;5008679;28;20232;-63
2021/04/22 01:47:49;;;;;;;12.97;11.67;;;;;;;;;;5006533;28;20221;-62
2021/04/22 01:50:16;;;;;;;13.13;11.70;;;;;;;;;;5012371;28;20669;-63
2021/04/22 01:52:42;;;;;;;14.67;12.77;;;;;;;;;;5011078;28;20190;-63
2021/04/22 01:55:10;;;;;;;12.70;11.40;;;;;;;;;;5004841;28;20220;-64
2021/04/22 01:57:36;;;;;;;12.23;10.63;;;;;;;;;;5007070;28;20209;-62
2021/04/22 02:00:07;;;;;;;12.67;11.17;;;;;;;;;;4999769;28;20205;-63
2021/04/22 02:02:33;;;;;;;13.33;11.93;;;;;;;;;;4997514;28;20283;-63
2021/04/22 02:04:59;;;;;;;14.87;11.70;;;;;;;;;;5022214;28;20281;-63
2021/04/22 02:07:25;;;;;;;12.63;11.37;;;;;;;;;;4999043;28;20343;-62
2021/04/22 02:09:51;;;;;;;13.60;12.20;;;;;;;;;;5005757;28;20603;-62
2021/04/22 02:12:17;;;;;;;14.10;12.63;;;;;;;;;;5003111;28;20715;-62
2021/04/22 02:14:43;;;;;;;12.53;11.23;;;;;;;;;;5010398;28;20652;-64
2021/04/22 02:17:09;;;;;;;13.53;12.20;;;;;;;;;;5007168;28;20189;-63
2021/04/22 02:19:35;;;;;;;16.07;12.07;;;;;;;;;;5006930;28;20196;-63
2021/04/22 02:22:01;;;;;;;14.87;12.03;;;;;;;;;;5003452;28;20703;-64
2021/04/22 02:24:27;;;;;;;12.57;11.27;;;;;;;;;;5005991;28;20235;-63
2021/04/22 02:26:53;;;;;;;13.63;12.00;;;;;;;;;;5004715;28;20313;-64
2021/04/22 02:29:19;;;;;;;13.80;12.47;;;;;;;;;;5001913;28;20584;-64
2021/04/22 02:31:45;;;;;;;13.70;12.30;;;;;;;;;;5008760;28;20548;-63
2021/04/22 02:34:11;;;;;;;13.63;11.90;;;;;;;;;;5020238;28;20196;-63
2021/04/22 02:36:37;;;;;;;13.60;11.77;;;;;;;;;;5021300;28;20192;-62
2021/04/22 02:39:04;;;;;;;13.60;12.20;;;;;;;;;;5004198;28;20206;-64
2021/04/22 02:41:30;;;;;;;12.87;11.57;;;;;;;;;;4999675;28;20204;-63
2021/04/22 02:43:56;;;;;;;13.77;12.37;;;;;;;;;;5001761;28;20185;-63
2021/04/22 02:46:22;;;;;;;12.20;10.93;;;;;;;;;;5017270;28;20197;-65
2021/04/22 02:48:48;;;;;;;12.57;11.47;;;;;;;;;;5020441;28;20612;-65
2021/04/22 02:51:14;;;;;;;14.97;12.60;;;;;;;;;;5005611;28;20228;-63
2021/04/22 02:53:40;;;;;;;14.43;12.93;;;;;;;;;;5006936;28;20192;-64
2021/04/22 02:56:06;;;;;;;16.77;12.87;;;;;;;;;;5017014;28;20220;-65
2021/04/22 02:58:32;;;;;;;14.57;13.17;;;;;;;;;;5012346;28;20216;-62
2021/04/22 03:00:58;;;;;;;14.20;12.80;;;;;;;;;;5002393;28;20204;-64
2021/04/22 03:03:24;;;;;;;14.03;12.67;;;;;;;;;;5001009;28;20204;-62
2021/04/22 03:05:51;;;;;;;13.23;11.93;;;;;;;;;;5006716;28;20188;-64
2021/04/22 03:08:17;;;;;;;14.17;12.77;;;;;;;;;;5008767;28;20220;-64
2021/04/22 03:10:44;;;;;;;14.67;13.17;;;;;;;;;;5007834;28;20880;-63
2021/04/22 03:13:10;;;;;;;15.17;13.67;;;;;;;;;;5002058;28;20204;-63
2021/04/22 03:15:36;;;;;;;13.97;12.67;;;;;;;;;;5001877;28;20201;-64
2021/04/22 03:18:03;;;;;;;14.37;13.07;;;;;;;;;;5004282;28;20209;-65
2021/04/22 03:20:29;;;;;;;14.73;12.90;;;;;;;;;;4999893;28;20181;-62
2021/04/22 03:22:55;;;;;;;18.07;16.03;;;;;;;;;;5006883;28;20208;-64
2021/04/22 03:25:24;;;;;;;18.60;14.67;;;;;;;;;;5004248;28;20189;-63
2021/04/22 03:27:50;;;;;;;15.53;13.93;;;;;;;;;;5004374;28;20316;-65
2021/04/22 03:30:17;;;;;;;15.27;13.63;;;;;;;;;;5001289;28;20208;-62
2021/04/22 03:32:43;;;;;;;15.07;13.57;;;;;;;;;;5006971;28;20295;-63
2021/04/22 03:35:10;;;;;;;19.53;17.50;;;;;;;;;;5009950;28;20189;-63
2021/04/22 03:37:36;;;;;;;26.33;22.80;;;;;;;;;;5009288;28;20272;-63
2021/04/22 03:40:04;;;;;;;29.97;26.40;;;;;;;;;;5001124;28;20585;-63
2021/04/22 03:42:30;;;;;;;31.07;27.93;;;;;;;;;;5005877;28;20293;-62
2021/04/22 03:44:57;;;;;;;33.57;29.93;;;;;;;;;;5000674;28;20196;-62
2021/04/22 03:47:23;;;;;;;31.73;28.43;;;;;;;;;;5001461;28;20251;-62
2021/04/22 03:49:49;;;;;;;35.37;31.53;;;;;;;;;;5003007;28;20773;-63
2021/04/22 03:52:15;;;;;;;33.80;30.27;;;;;;;;;;5005115;28;20192;-62
2021/04/22 03:54:41;;;;;;;36.33;32.07;;;;;;;;;;5000290;28;20196;-63
2021/04/22 03:57:07;;;;;;;37.20;31.40;;;;;;;;;;5007599;28;20242;-63
2021/04/22 03:59:33;;;;;;;35.63;31.83;;;;;;;;;;4993107;28;20571;-62
2021/04/22 04:01:59;;;;;;;36.80;32.40;;;;;;;;;;5003974;28;20207;-63
2021/04/22 04:04:26;;;;;;;37.33;33.40;;;;;;;;;;4998399;28;20207;-64
2021/04/22 04:06:52;;;;;;;36.63;31.53;;;;;;;;;;5000956;28;20665;-64
2021/04/22 04:09:18;;;;;;;37.23;33.20;;;;;;;;;;5000294;28;20710;-62
2021/04/22 04:11:44;;;;;;;36.50;32.53;;;;;;;;;;5005994;28;20198;-62
2021/04/22 04:14:10;;;;;;;36.53;30.67;;;;;;;;;;5001046;28;20708;-63
2021/04/22 04:16:36;;;;;;;33.20;29.40;;;;;;;;;;5004723;28;20193;-63
2021/04/22 04:19:03;;;;;;;33.70;30.20;;;;;;;;;;5008406;28;20213;-64
2021/04/22 04:21:29;;;;;;;34.10;30.50;;;;;;;;;;5004091;28;20271;-62
2021/04/22 04:23:55;;;;;;;33.23;29.13;;;;;;;;;;5001387;28;20280;-63
2021/04/22 04:26:21;;;;;;;34.90;30.93;;;;;;;;;;5021474;28;20216;-63
2021/04/22 04:28:47;;;;;;;32.50;29.03;;;;;;;;;;5000727;28;20209;-63
2021/04/22 04:31:13;;;;;;;34.63;30.63;;;;;;;;;;5004679;28;20213;-63
2021/04/22 04:33:39;;;;;;;34.80;31.07;;;;;;;;;;5002154;28;20184;-62
2021/04/22 04:36:05;;;;;;;30.43;27.33;;;;;;;;;;5005280;28;20177;-64
2021/04/22 04:38:31;;;;;;;32.43;28.60;;;;;;;;;;5005560;28;20209;-63
2021/04/22 04:40:57;;;;;;;31.40;28.00;;;;;;;;;;5013126;28;20193;-62
2021/04/22 04:43:23;;;;;;;31.27;27.87;;;;;;;;;;4998185;28;20189;-63
2021/04/22 04:45:50;;;;;;;31.17;27.80;;;;;;;;;;5002481;28;20209;-63
2021/04/22 04:48:16;;;;;;;31.83;27.93;;;;;;;;;;5004750;28;20212;-63
2021/04/22 04:50:42;;;;;;;30.13;27.00;;;;;;;;;;5005985;28;20218;-63
2021/04/22 04:53:08;;;;;;;29.97;27.00;;;;;;;;;;5000712;28;20628;-63
2021/04/22 04:55:34;;;;;;;29.67;26.23;;;;;;;;;;4999452;28;20532;-64
2021/04/22 04:58:00;;;;;;;27.87;24.87;;;;;;;;;;4999540;28;20205;-63
2021/04/22 05:00:27;;;;;;;27.70;24.70;;;;;;;;;;5003122;28;20185;-66
2021/04/22 05:02:53;;;;;;;26.53;23.90;;;;;;;;;;5005124;28;20225;-65
2021/04/22 05:05:19;;;;;;;31.50;25.93;;;;;;;;;;5005364;28;20209;-66
2021/04/22 05:07:45;;;;;;;29.47;24.47;;;;;;;;;;5003026;28;20233;-65
2021/04/22 05:10:12;;;;;;;29.07;24.93;;;;;;;;;;5011004;28;20841;-65
2021/04/22 05:12:38;;;;;;;26.60;23.77;;;;;;;;;;5006446;28;20185;-64
2021/04/22 05:15:05;;;;;;;26.33;23.63;;;;;;;;;;5008324;28;20747;-66
2021/04/22 05:17:31;;;;;;;26.83;23.93;;;;;;;;;;5006052;28;20250;-66
2021/04/22 05:19:57;;;;;;;31.17;24.67;;;;;;;;;;5003438;28;20623;-65
2021/04/22 05:22:23;;;;;;;27.13;24.27;;;;;;;;;;5003481;28;20243;-65
2021/04/22 05:24:49;;;;;;;26.60;23.80;;;;;;;;;;5003191;28;20219;-66
2021/04/22 05:27:15;;;;;;;26.67;23.93;;;;;;;;;;5013128;28;20228;-65
2021/04/22 05:29:41;;;;;;;25.60;22.73;;;;;;;;;;5004835;28;20590;-66
2021/04/22 05:32:08;;;;;;;26.50;23.80;;;;;;;;;;5002110;28;20366;-66
2021/04/22 05:34:34;;;;;;;25.33;22.77;;;;;;;;;;5013219;28;20177;-67
2021/04/22 05:37:00;;;;;;;26.53;23.70;;;;;;;;;;5007940;28;20271;-66
2021/04/22 05:39:26;;;;;;;24.50;21.83;;;;;;;;;;5008195;28;20212;-66
2021/04/22 05:41:55;;;;;;;25.40;22.70;;;;;;;;;;5002516;28;20621;-64
2021/04/22 05:44:21;;;;;;;23.60;20.87;;;;;;;;;;5005311;28;20224;-64
2021/04/22 05:46:47;;;;;;;22.03;19.00;;;;;;;;;;5004884;28;20197;-66
2021/04/22 05:49:13;;;;;;;22.23;19.73;;;;;;;;;;4999704;28;20225;-66
2021/04/22 05:51:41;;;;;;;22.83;20.33;;;;;;;;;;5004400;28;20184;-64
2021/04/22 05:54:07;;;;;;;22.57;20.03;;;;;;;;;;5006225;28;20710;-65
2021/04/22 05:56:33;;;;;;;23.53;21.00;;;;;;;;;;5006386;28;20189;-65
2021/04/22 05:58:59;;;;;;;20.53;18.33;;;;;;;;;;4999653;28;20220;-65
2021/04/22 06:01:25;;;;;;;22.47;18.53;;;;;;;;;;4998145;28;20268;-65
2021/04/22 06:03:51;;;;;;;20.90;18.73;;;;;;;;;;4996915;28;20238;-66
2021/04/22 06:06:18;;;;;;;21.47;19.17;;;;;;;;;;4997417;28;20670;-65
2021/04/22 06:08:44;;;;;;;24.58;18.88;;;;;;;;;;4996488;28;20240;-66
2021/04/22 06:11:10;;;;;;;22.38;19.08;;;;;;;;;;5011595;28;20187;-66
2021/04/22 06:13:36;;;;;;;21.63;19.48;;;;;;;;;;5001383;28;20839;-66
2021/04/22 06:16:02;;;;;;;21.20;19.10;;;;;;;;;;4998799;28;20272;-65
2021/04/22 06:18:28;;;;;;;21.77;19.38;;;;;;;;;;5004782;28;20503;-63
2021/04/22 06:20:54;;;;;;;20.73;18.60;;;;;;;;;;5002017;28;20227;-65
2021/04/22 06:23:20;;;;;;;21.17;18.98;;;;;;;;;;4995401;28;20204;-65
2021/04/22 06:25:46;;;;;;;23.70;18.50;;;;;;;;;;4993549;28;20185;-62
2021/04/22 06:28:12;;;;;;;20.90;18.88;;;;;;;;;;4990142;28;20625;-65
2021/04/22 06:30:38;;;;;;;21.17;17.92;;;;;;;;;;4994143;28;20254;-65
2021/04/22 06:33:05;;;;;;;27.33;19.52;;;;;;;;;;4996572;28;20645;-63
2021/04/22 06:35:31;;;;;;;23.80;19.83;;;;;;;;;;5000488;28;20267;-63
2021/04/22 06:37:57;;;;;;;21.80;19.08;;;;;;;;;;4997164;28;20705;-63
2021/04/22 06:40:23;;;;;;;22.20;18.67;;;;;;;;;;5003627;28;20667;-63
2021/04/22 06:42:49;;;;;;;21.27;19.15;;;;;;;;;;5005721;28;20290;-63
2021/04/22 06:45:16;;;;;;;21.52;18.38;;;;;;;;;;5000227;28;20197;-64
2021/04/22 06:47:43;;;;;;;21.05;18.40;;;;;;;;;;5009562;28;20212;-64
2021/04/22 06:50:11;;;;;;;19.63;17.63;;;;;;;;;;4998808;28;20210;-63
2021/04/22 06:52:38;;;;;;;26.98;19.25;;;;;;;;;;5004929;28;20193;-63
2021/04/22 06:55:05;;;;;;;23.13;18.75;;;;;;;;;;5004737;28;20292;-63
2021/04/22 06:57:31;;;;;;;21.83;18.88;;;;;;;;;;5007014;28;20209;-62
2021/04/22 06:59:57;;;;;;;25.30;19.33;;;;;;;;;;5003725;28;20193;-62
2021/04/22 07:02:23;;;;;;;22.25;18.88;;;;;;;;;;5004339;28;20196;-64
2021/04/22 07:04:49;;;;;;;21.20;18.90;;;;;;;;;;4999023;28;20592;-64
2021/04/22 07:07:15;;;;;;;23.33;19.67;;;;;;;;;;5000912;28;20595;-64
2021/04/22 07:09:41;;;;;;;23.35;19.08;;;;;;;;;;5009413;28;20215;-64
2021/04/22 07:12:07;;;;;;;21.73;19.10;;;;;;;;;;4999506;28;20335;-64
2021/04/22 07:14:33;;;;;;;20.75;18.50;;;;;;;;;;5000595;28;20201;-65
2021/04/22 07:17:00;;;;;;;23.77;19.50;;;;;;;;;;5003917;28;20197;-64
2021/04/22 07:19:27;;;;;;;21.90;18.25;;;;;;;;;;5003594;28;20185;-64
2021/04/22 07:21:54;;;;;;;23.33;18.80;;;;;;;;;;5000096;28;20811;-66
2021/04/22 07:24:20;;;;;;;22.40;18.88;;;;;;;;;;5011019;28;20199;-66
2021/04/22 07:26:46;;;;;;;21.02;18.75;;;;;;;;;;4997487;28;20216;-65
2021/04/22 07:29:12;;;;;;;20.00;17.10;;;;;;;;;;4996140;28;20209;-66
2021/04/22 07:31:38;;;;;;;24.15;19.85;;;;;;;;;;5015174;28;20250;-65
2021/04/22 07:34:04;;;;;;;23.20;17.88;;;;;;;;;;5000752;28;20186;-65
2021/04/22 07:36:30;;;;;;;28.50;22.33;;;;;;;;;;5001054;28;20198;-65
2021/04/22 07:38:56;;;;;;;22.58;18.63;;;;;;;;;;5000426;28;20211;-65
2021/04/22 07:41:23;;;;;;;19.48;16.15;;;;;;;;;;4999543;28;20205;-63
2021/04/22 07:43:49;;;;;;;23.58;17.70;;;;;;;;;;5000799;28;20570;-63
2021/04/22 07:46:15;;;;;;;21.00;17.55;;;;;;;;;;5004303;28;20276;-64
2021/04/22 07:48:41;;;;;;;19.50;17.30;;;;;;;;;;5004176;28;20302;-64
2021/04/22 07:51:07;;;;;;;20.77;16.98;;;;;;;;;;5001409;28;20231;-63
2021/04/22 07:53:33;;;;;;;20.08;16.95;;;;;;;;;;5003966;28;20209;-63
2021/04/22 07:56:00;;;;;;;19.77;16.13;;;;;;;;;;4999861;28;20885;-63
2021/04/22 07:58:26;;;;;;;21.23;17.23;;;;;;;;;;4999824;28;20268;-62
2021/04/22 08:00:52;;;;;;;18.05;16.13;;;;;;;;;;5004377;28;20535;-64
2021/04/22 08:03:18;;;;;;;20.10;16.95;;;;;;;;;;4996869;28;20193;-65
2021/04/22 08:05:46;;;;;;;17.48;15.80;;;;;;;;;;5002330;28;20727;-65
2021/04/22 08:08:13;;;;;;;20.73;15.68;;;;;;;;;;5001127;28;20696;-63
2021/04/22 08:10:41;;;;;;;17.27;14.98;;;;;;;;;;4999659;28;20705;-65
2021/04/22 08:13:08;;;;;;;19.48;16.23;;;;;;;;;;4994751;28;20190;-63
2021/04/22 08:15:35;;;;;;;20.23;16.83;;;;;;;;;;4998533;28;20235;-65
2021/04/22 08:18:01;;;;;;;16.80;15.00;;;;;;;;;;5000381;28;20654;-66
2021/04/22 08:20:28;;;;;;;16.92;15.23;;;;;;;;;;4999800;28;20251;-65
2021/04/22 08:22:55;;;;;;;19.02;15.57;;;;;;;;;;4995026;28;20704;-63
2021/04/22 08:25:27;;;;;;;16.15;13.45;;;;;;;;;;5006328;28;20193;-63
2021/04/22 08:27:54;;;;;;;17.15;14.27;;;;;;;;;;5002205;28;20219;-65
2021/04/22 08:30:22;;;;;;;18.73;14.35;;;;;;;;;;5003046;28;20214;-65
2021/04/22 08:32:49;;;;;;;13.80;12.40;;;;;;;;;;4997792;28;20184;-64
2021/04/22 08:35:15;;;;;;;13.80;11.13;;;;;;;;;;5002002;28;20264;-63
2021/04/22 08:37:41;;;;;;;20.48;13.98;;;;;;;;;;4999947;28;20219;-64
2021/04/22 08:40:08;;;;;;;17.42;14.88;;;;;;;;;;5002415;28;20185;-64
2021/04/22 08:42:35;;;;;;;14.70;13.07;;;;;;;;;;5004841;28;20197;-64
2021/04/22 08:45:01;;;;;;;15.35;12.70;;;;;;;;;;5005767;28;20264;-64
2021/04/22 08:47:28;;;;;;;19.48;13.85;;;;;;;;;;5007189;28;20201;-64
2021/04/22 08:49:54;;;;;;;18.52;13.80;;;;;;;;;;5002526;28;20202;-64
2021/04/22 08:52:21;;;;;;;17.42;12.10;;;;;;;;;;5009969;28;20185;-64
2021/04/22 08:54:47;;;;;;;17.40;13.68;;;;;;;;;;5000987;28;20188;-65
2021/04/22 08:57:13;;;;;;;17.38;13.70;;;;;;;;;;5009141;28;20215;-65
2021/04/22 08:59:39;;;;;;;16.13;13.57;;;;;;;;;;5006175;28;20675;-65
2021/04/22 09:02:05;;;;;;;20.05;14.80;;;;;;;;;;5009382;28;20193;-65
2021/04/22 09:04:33;;;;;;;17.38;14.40;;;;;;;;;;4998473;28;20211;-65
2021/04/22 09:06:59;;;;;;;18.25;13.38;;;;;;;;;;5001157;28;20707;-63
2021/04/22 09:09:25;;;;;;;16.17;14.63;;;;;;;;;;5003116;28;20236;-65
2021/04/22 09:11:51;;;;;;;18.98;14.98;;;;;;;;;;5004781;28;20284;-65
2021/04/22 09:14:18;;;;;;;18.90;14.50;;;;;;;;;;5004155;28;20242;-63
2021/04/22 09:16:44;;;;;;;15.85;13.25;;;;;;;;;;5002508;28;20185;-65
2021/04/22 09:19:15;;;;;;;19.67;13.75;;;;;;;;;;5008258;28;20208;-65
2021/04/22 09:21:44;;;;;;;15.10;13.57;;;;;;;;;;5003326;28;20193;-64
2021/04/22 09:24:12;;;;;;;20.08;13.27;;;;;;;;;;5002588;28;20232;-64
2021/04/22 09:26:48;;;;;;;14.98;11.43;;;;;;;;;;5006035;28;20196;-64
2021/04/22 09:29:16;;;;;;;14.43;12.88;;;;;;;;;;5004285;28;20201;-65
2021/04/22 09:31:43;;;;;;;13.35;11.68;;;;;;;;;;5005957;28;20195;-66
2021/04/22 09:34:12;;;;;;;15.40;12.82;;;;;;;;;;5010215;28;20586;-63
2021/04/22 09:36:49;;;;;;;17.63;12.13;;;;;;;;;;5003860;28;20188;-63
2021/04/22 09:39:20;;;;;;;14.82;12.20;;;;;;;;;;5004606;28;20227;-63
2021/04/22 09:41:48;;;;;;;13.57;11.63;;;;;;;;;;5007581;28;20266;-63
2021/04/22 09:44:15;;;;;;;13.85;12.35;;;;;;;;;;5006482;28;20197;-64
2021/04/22 09:46:44;;;;;;;15.40;12.13;;;;;;;;;;5003963;28;20199;-63
2021/04/22 09:49:16;;;;;;;15.30;12.07;;;;;;;;;;5003913;28;20194;-63
2021/04/22 09:51:44;;;;;;;14.73;11.50;;;;;;;;;;5003421;28;20291;-63
2021/04/22 09:54:12;;;;;;;13.88;11.15;;;;;;;;;;5005752;28;20196;-64
2021/04/22 09:57:04;;;;;;;13.27;11.15;;;;;;;;;;5005742;28;20184;-63
2021/04/22 09:59:30;;;;;;;13.80;11.00;;;;;;;;;;4992626;28;20294;-63
2021/04/22 10:02:02;;;;;;;18.98;11.05;;;;;;;;;;4986207;28;20354;-63
2021/04/22 10:04:32;;;;;;;13.75;11.48;;;;;;;;;;4998332;28;20192;-62
2021/04/22 10:06:58;;;;;;;18.73;11.77;;;;;;;;;;4999148;28;20719;-66
2021/04/22 10:09:34;;;;;;;14.40;11.13;;;;;;;;;;4985014;28;20519;-65
2021/04/22 10:12:04;;;;;;;15.35;11.10;;;;;;;;;;4980212;28;20321;-66
2021/04/22 10:14:34;;;;;;;15.02;10.07;;;;;;;;;;4997813;28;20600;-66
2021/04/22 10:17:12;;;;;;;13.02;9.98;;;;;;;;;;4992384;28;20209;-66
2021/04/22 10:19:38;;;;;;;12.10;9.98;;;;;;;;;;5004658;28;20217;-67
2021/04/22 10:22:04;;;;;;;12.18;9.27;;;;;;;;;;5019008;28;20180;-67
2021/04/22 10:24:30;;;;;;;15.15;8.95;;;;;;;;;;4996965;28;20177;-68
2021/04/22 10:27:04;;;;;;;13.35;10.15;;;;;;;;;;5000929;28;20189;-68
2021/04/22 10:29:30;;;;;;;13.13;9.77;;;;;;;;;;5000066;28;20208;-68
2021/04/22 10:31:58;;;;;;;13.50;10.73;;;;;;;;;;4999727;28;20256;-67
2021/04/22 10:34:29;;;;;;;13.57;10.15;;;;;;;;;;4998344;28;20399;-67
2021/04/22 10:36:55;;;;;;;11.32;9.88;;;;;;;;;;5001502;28;20659;-66
2021/04/22 10:39:22;;;;;;;12.32;8.98;;;;;;;;;;4998396;28;20301;-66
2021/04/22 10:41:49;;;;;;;12.32;9.55;;;;;;;;;;4999132;28;20189;-64
2021/04/22 10:44:15;;;;;;;12.13;9.88;;;;;;;;;;5000519;28;20197;-64
2021/04/22 10:46:41;;;;;;;9.50;8.50;;;;;;;;;;4997528;28;20280;-66
2021/04/22 10:49:08;;;;;;;10.23;8.02;;;;;;;;;;4996016;28;20259;-63
2021/04/22 10:51:35;;;;;;;9.75;7.88;;;;;;;;;;4999545;28;20193;-66
2021/04/22 10:54:03;;;;;;;14.73;7.90;;;;;;;;;;4999946;28;20594;-65
2021/04/22 10:56:30;;;;;;;12.45;7.88;;;;;;;;;;5000258;28;20661;-66
2021/04/22 10:58:56;;;;;;;13.20;8.07;;;;;;;;;;5002267;28;20683;-64
2021/04/22 11:01:41;;;;;;;9.48;7.70;;;;;;;;;;5002831;28;20240;-66
2021/04/22 11:04:08;;;;;;;11.30;7.40;;;;;;;;;;4997415;28;20199;-65
2021/04/22 11:06:36;;;;;;;13.52;7.78;;;;;;;;;;4993723;28;22054;-64
2021/04/22 11:09:11;;;;;;;8.50;6.07;;;;;;;;;;5001487;28;20603;-65
2021/04/22 11:11:37;;;;;;;7.13;5.78;;;;;;;;;;4997796;28;20291;-65
2021/04/22 11:14:07;;;;;;;10.85;5.70;;;;;;;;;;4999191;28;20185;-65
2021/04/22 11:16:34;;;;;;;6.85;4.45;;;;;;;;;;5001008;28;20270;-65
2021/04/22 11:19:00;;;;;;;7.45;5.20;;;;;;;;;;4999861;28;20904;-66
2021/04/22 11:21:36;;;;;;;6.65;5.00;;;;;;;;;;4995089;28;20215;-66
2021/04/22 11:24:03;;;;;;;6.90;4.70;;;;;;;;;;5001989;28;20181;-66
2021/04/22 11:26:30;;;;;;;9.52;4.88;;;;;;;;;;5002175;28;20193;-65
2021/04/22 11:29:08;;;;;;;8.48;5.15;;;;;;;;;;5001164;28;20208;-67
2021/04/22 11:31:43;;;;;;;6.47;4.75;;;;;;;;;;5015672;28;20243;-66
2021/04/22 11:34:09;;;;;;;7.53;5.25;;;;;;;;;;5012057;28;20665;-66
2021/04/22 11:36:46;;;;;;;8.93;5.82;;;;;;;;;;5007983;28;20193;-66
2021/04/22 11:39:12;;;;;;;7.40;4.82;;;;;;;;;;5006020;28;20212;-65
2021/04/22 11:41:38;;;;;;;5.70;4.80;;;;;;;;;;4999332;28;20189;-66
2021/04/22 11:44:04;;;;;;;7.32;4.32;;;;;;;;;;5004241;28;20193;-65
2021/04/22 11:46:41;;;;;;;6.63;4.13;;;;;;;;;;4999865;28;20192;-65
2021/04/22 11:49:07;;;;;;;7.55;4.90;;;;;;;;;;5008016;28;20667;-65
2021/04/22 11:51:34;;;;;;;7.38;4.47;;;;;;;;;;5003712;28;20185;-66
2021/04/22 11:54:00;;;;;;;8.13;4.43;;;;;;;;;;5000524;28;20188;-66
2021/04/22 11:56:27;;;;;;;9.80;4.68;;;;;;;;;;5000106;28;20193;-65
2021/04/22 11:58:53;;;;;;;8.80;3.92;;;;;;;;;;5006453;28;20204;-65
2021/04/22 12:01:19;;;;;;;6.50;4.38;;;;;;;;;;5001606;28;20193;-65
2021/04/22 12:03:46;;;;;;;6.60;3.70;;;;;;;;;;5005497;28;20204;-66
2021/04/22 12:06:15;;;;;;;6.55;4.03;;;;;;;;;;4995197;28;20184;-64
2021/04/22 12:08:43;;;;;;;10.13;4.97;;;;;;;;;;4997781;28;20235;-65
2021/04/22 12:11:10;;;;;;;7.43;4.88;;;;;;;;;;5002137;28;20181;-65
2021/04/22 12:13:36;;;;;;;10.32;4.80;;;;;;;;;;5006562;28;20548;-65
2021/04/22 12:16:03;;;;;;;6.15;4.30;;;;;;;;;;4997323;28;20381;-65
2021/04/22 12:18:29;;;;;;;8.35;4.63;;;;;;;;;;5009400;28;20212;-65
2021/04/22 12:21:07;;;;;;;7.80;4.20;;;;;;;;;;4999488;28;20218;-65
2021/04/22 12:23:34;;;;;;;5.05;3.05;;;;;;;;;;5005251;28;20227;-65
2021/04/22 12:26:14;;;;;;;8.32;3.63;;;;;;;;;;5005612;28;20189;-65
2021/04/22 12:28:50;;;;;;;6.30;3.92;;;;;;;;;;5002392;28;20207;-65
2021/04/22 12:31:25;;;;;;;5.68;3.83;;;;;;;;;;4998594;28;20204;-64
2021/04/22 12:33:51;;;;;;;9.48;3.72;;;;;;;;;;5003683;28;20185;-64
2021/04/22 12:36:17;;;;;;;4.82;3.08;;;;;;;;;;5019518;28;20220;-64
2021/04/22 12:38:44;;;;;;;6.75;3.13;;;;;;;;;;5008492;28;20616;-64
2021/04/22 12:41:10;;;;;;;5.95;2.95;;;;;;;;;;5001651;28;20196;-65
2021/04/22 12:43:38;;;;;;;10.10;3.60;;;;;;;;;;4997309;28;20223;-64
2021/04/22 12:46:07;;;;;;;6.85;3.20;;;;;;;;;;4998758;28;20545;-64
2021/04/22 12:48:33;;;;;;;6.85;3.15;;;;;;;;;;4998820;28;20224;-64
2021/04/22 12:50:59;;;;;;;5.32;3.03;;;;;;;;;;5000883;28;20221;-65
2021/04/22 12:53:26;;;;;;;4.78;3.10;;;;;;;;;;5005234;28;20542;-64
2021/04/22 12:55:52;;;;;;;5.13;3.03;;;;;;;;;;5004244;28;20241;-64
2021/04/22 12:58:21;;;;;;;5.72;3.30;;;;;;;;;;5007518;28;20209;-65
2021/04/22 13:01:12;;;;;;;5.28;3.33;;;;;;;;;;5004635;28;20652;-64
2021/04/22 13:03:40;;;;;;;5.75;3.50;;;;;;;;;;5005021;28;20196;-64
2021/04/22 13:06:12;;;;;;;3.95;3.13;;;;;;;;;;5006294;28;20264;-63
2021/04/22 13:08:42;;;;;;;6.40;3.33;;;;;;;;;;5007911;28;20282;-64
2021/04/22 13:11:10;;;;;;;7.22;3.15;;;;;;;;;;5004434;28;20181;-64
2021/04/22 13:13:37;;;;;;;9.45;3.92;;;;;;;;;;5010769;28;20585;-64
2021/04/22 13:16:08;;;;;;;6.28;2.97;;;;;;;;;;5011284;28;20674;-64
2021/04/22 13:18:36;;;;;;;5.78;3.15;;;;;;;;;;5004251;28;20755;-64
2021/04/22 13:21:03;;;;;;;7.78;3.13;;;;;;;;;;5002498;28;20193;-64
2021/04/22 13:23:29;;;;;;;4.97;2.88;;;;;;;;;;5000032;28;20269;-64
2021/04/22 13:25:56;;;;;;;6.80;3.38;;;;;;;;;;4999962;28;20264;-64
2021/04/22 13:28:23;;;;;;;7.72;3.50;;;;;;;;;;5004267;28;20217;-64
2021/04/22 13:30:49;;;;;;;7.00;3.00;;;;;;;;;;5011912;28;20185;-64
2021/04/22 13:33:20;;;;;;;7.00;3.28;;;;;;;;;;5001865;28;20189;-63
2021/04/22 13:35:47;;;;;;;8.95;2.80;;;;;;;;;;5003696;28;20228;-65
2021/04/22 13:38:22;;;;;;;4.60;3.08;;;;;;;;;;5004930;28;20197;-64
2021/04/22 13:40:50;;;;;;;5.15;2.60;;;;;;;;;;5001047;28;20211;-62
2021/04/22 13:43:17;;;;;;;7.30;3.00;;;;;;;;;;4998763;28;20236;-63
2021/04/22 13:45:43;;;;;;;6.18;2.55;;;;;;;;;;5005402;28;20236;-63
2021/04/22 13:48:17;;;;;;;7.85;2.70;;;;;;;;;;4997184;28;20288;-64
2021/04/22 13:50:44;;;;;;;4.82;2.88;;;;;;;;;;4997807;28;20218;-65
2021/04/22 13:53:10;;;;;;;7.13;2.80;;;;;;;;;;5001243;28;20274;-65
2021/04/22 13:55:47;;;;;;;6.63;3.03;;;;;;;;;;4996973;28;20719;-64
2021/04/22 13:58:13;;;;;;;6.97;2.90;;;;;;;;;;5000078;28;20217;-65
2021/04/22 14:00:39;;;;;;;6.40;2.90;;;;;;;;;;5003662;28;20185;-64
2021/04/22 14:03:09;;;;;;;4.10;2.65;;;;;;;;;;5001284;28;20224;-65
2021/04/22 14:05:37;;;;;;;5.07;2.55;;;;;;;;;;5004710;28;20216;-64
2021/04/22 14:08:03;;;;;;;5.93;2.50;;;;;;;;;;5005271;28;20209;-64
2021/04/22 14:10:32;;;;;;;4.47;2.45;;;;;;;;;;5002104;28;20201;-64
2021/04/22 14:12:58;;;;;;;5.32;2.50;;;;;;;;;;5001505;28;20195;-64
2021/04/22 14:15:24;;;;;;;4.15;2.20;;;;;;;;;;4997985;28;20193;-64
2021/04/22 14:17:50;;;;;;;4.05;2.30;;;;;;;;;;4999469;28;20202;-64
2021/04/22 14:20:16;;;;;;;5.72;2.45;;;;;;;;;;4999731;28;20580;-64
2021/04/22 14:22:42;;;;;;;6.97;2.58;;;;;;;;;;5001722;28;20193;-64
2021/04/22 14:25:09;;;;;;;4.85;2.25;;;;;;;;;;5009007;28;20263;-64
2021/04/22 14:27:35;;;;;;;5.95;1.80;;;;;;;;;;5004286;28;20704;-64